createdAt,value
2023-02-14T00:01:33.993Z,0.00
2023-02-14T00:02:33.982Z,0.00
2023-02-14T00:04:26.834Z,0.00
2023-02-14T00:05:26.703Z,0.00
2023-02-14T00:07:19.554Z,0.00
2023-02-14T00:08:19.475Z,0.00
2023-02-14T00:10:12.323Z,0.00
2023-02-14T00:11:12.263Z,0.00
2023-02-14T00:13:05.742Z,0.00
2023-02-14T00:14:05.250Z,0.00
2023-02-14T00:15:58.134Z,0.00
2023-02-14T00:16:58.003Z,0.00
2023-02-14T00:18:50.850Z,0.00
2023-02-14T00:19:50.788Z,0.00
2023-02-14T00:21:43.644Z,0.00
2023-02-14T00:22:43.568Z,0.00
2023-02-14T00:24:37.000Z,0.00
2023-02-14T00:25:36.537Z,0.00
2023-02-14T00:27:29.401Z,0.00
2023-02-14T00:28:29.369Z,0.00
2023-02-14T00:30:22.240Z,0.00
2023-02-14T00:31:22.209Z,0.00
2023-02-14T00:33:14.948Z,0.00
2023-02-14T00:34:14.879Z,0.00
2023-02-14T00:36:07.754Z,0.00
2023-02-14T00:37:07.664Z,0.00
2023-02-14T00:39:00.513Z,0.00
2023-02-14T00:40:00.454Z,0.00
2023-02-14T00:41:53.300Z,0.00
2023-02-14T00:42:53.244Z,0.00
2023-02-14T00:44:46.663Z,0.00
2023-02-14T00:45:46.239Z,0.00
2023-02-14T00:47:39.061Z,0.00
2023-02-14T00:48:38.981Z,0.00
2023-02-14T00:50:31.842Z,0.00
2023-02-14T00:51:31.772Z,0.00
2023-02-14T00:53:24.624Z,0.00
2023-02-14T00:54:24.556Z,0.00
2023-02-14T00:56:17.393Z,0.00
2023-02-14T00:57:17.325Z,0.00
2023-02-14T00:59:10.182Z,0.00
2023-02-14T01:00:10.121Z,0.00
2023-02-14T01:02:02.962Z,0.00
2023-02-14T01:03:02.885Z,0.00
2023-02-14T01:04:55.747Z,0.00
2023-02-14T01:05:55.661Z,0.00
2023-02-14T01:07:48.521Z,0.00
2023-02-14T01:08:48.455Z,0.00
2023-02-14T01:10:41.303Z,0.00
2023-02-14T01:11:41.232Z,0.00
2023-02-14T01:13:34.119Z,0.00
2023-02-14T01:14:34.021Z,0.00
2023-02-14T01:16:26.984Z,0.00
2023-02-14T01:17:26.789Z,0.00
2023-02-14T01:19:19.643Z,0.00
2023-02-14T01:20:19.569Z,0.00
2023-02-14T01:22:12.416Z,0.00
2023-02-14T01:23:12.343Z,0.00
2023-02-14T01:25:05.209Z,0.00
2023-02-14T01:26:05.135Z,0.00
2023-02-14T01:27:57.981Z,0.00
2023-02-14T01:28:57.924Z,0.00
2023-02-14T01:30:50.852Z,0.00
2023-02-14T01:31:50.724Z,0.00
2023-02-14T01:33:43.545Z,0.00
2023-02-14T01:34:43.473Z,0.00
2023-02-14T01:36:36.340Z,0.00
2023-02-14T01:37:36.261Z,0.00
2023-02-14T01:39:32.141Z,0.00
2023-02-14T01:40:29.034Z,0.00
2023-02-14T01:42:21.882Z,0.00
2023-02-14T01:43:21.812Z,0.00
2023-02-14T01:45:14.681Z,0.00
2023-02-14T01:46:14.679Z,0.00
2023-02-14T01:48:07.445Z,0.00
2023-02-14T01:49:07.390Z,0.00
2023-02-14T01:51:00.567Z,0.00
2023-02-14T01:52:01.947Z,0.00
2023-02-14T01:53:53.008Z,0.00
2023-02-14T01:54:52.939Z,0.00
2023-02-14T01:56:45.795Z,0.00
2023-02-14T01:57:45.716Z,0.00
2023-02-14T01:59:38.578Z,0.00
2023-02-14T02:00:38.510Z,0.00
2023-02-14T02:02:31.471Z,0.00
2023-02-14T02:03:31.370Z,0.00
2023-02-14T02:05:24.136Z,0.00
2023-02-14T02:06:24.069Z,0.00
2023-02-14T02:08:16.922Z,0.00
2023-02-14T02:09:16.844Z,0.00
2023-02-14T02:11:09.696Z,0.00
2023-02-14T02:12:09.628Z,0.00
2023-02-14T02:14:02.503Z,0.00
2023-02-14T02:15:02.405Z,0.00
2023-02-14T02:16:55.346Z,0.00
2023-02-14T02:17:55.199Z,0.00
2023-02-14T02:19:48.045Z,0.00
2023-02-14T02:20:47.970Z,0.00
2023-02-14T02:22:40.825Z,0.00
2023-02-14T02:23:40.758Z,0.00
2023-02-14T02:25:33.602Z,0.00
2023-02-14T02:26:33.540Z,0.00
2023-02-14T02:28:26.387Z,0.00
2023-02-14T02:29:26.316Z,0.00
2023-02-14T02:31:19.275Z,0.00
2023-02-14T02:32:19.094Z,0.00
2023-02-14T02:34:11.971Z,0.00
2023-02-14T02:35:11.873Z,0.00
2023-02-14T02:37:04.727Z,0.00
2023-02-14T02:38:04.651Z,0.00
2023-02-14T02:39:57.507Z,0.00
2023-02-14T02:40:57.779Z,0.00
2023-02-14T02:42:50.301Z,0.00
2023-02-14T02:43:50.213Z,0.00
2023-02-14T02:45:43.084Z,0.00
2023-02-14T02:46:43.006Z,0.00
2023-02-14T02:48:35.851Z,0.00
2023-02-14T02:49:35.780Z,0.00
2023-02-14T02:51:28.624Z,0.00
2023-02-14T02:52:28.555Z,0.00
2023-02-14T02:54:21.392Z,0.00
2023-02-14T02:55:21.329Z,0.00
2023-02-14T02:57:14.177Z,0.00
2023-02-14T02:58:14.110Z,0.00
2023-02-14T03:00:06.957Z,0.00
2023-02-14T03:01:06.902Z,0.00
2023-02-14T03:02:59.739Z,0.00
2023-02-14T03:03:59.673Z,0.00
2023-02-14T03:05:52.535Z,0.00
2023-02-14T03:06:52.443Z,0.00
2023-02-14T03:08:45.298Z,0.00
2023-02-14T03:09:45.233Z,0.00
2023-02-14T03:11:38.088Z,0.00
2023-02-14T03:12:38.001Z,0.00
2023-02-14T03:14:30.853Z,0.00
2023-02-14T03:15:30.826Z,0.00
2023-02-14T03:17:23.638Z,0.00
2023-02-14T03:18:23.575Z,0.00
2023-02-14T03:20:16.442Z,0.00
2023-02-14T03:21:16.361Z,0.00
2023-02-14T03:23:09.193Z,0.00
2023-02-14T03:24:09.121Z,0.00
2023-02-14T03:26:01.976Z,0.00
2023-02-14T03:27:01.897Z,0.00
2023-02-14T03:28:54.753Z,0.00
2023-02-14T03:29:54.704Z,0.00
2023-02-14T03:31:47.704Z,0.00
2023-02-14T03:32:47.474Z,0.00
2023-02-14T03:34:40.316Z,0.00
2023-02-14T03:35:40.241Z,0.00
2023-02-14T03:37:33.103Z,0.00
2023-02-14T03:38:33.029Z,0.00
2023-02-14T03:40:25.876Z,0.00
2023-02-14T03:41:25.800Z,0.00
2023-02-14T03:43:18.652Z,0.00
2023-02-14T03:44:18.586Z,0.00
2023-02-14T03:46:11.457Z,0.00
2023-02-14T03:47:11.364Z,0.00
2023-02-14T03:49:04.288Z,0.00
2023-02-14T03:50:04.147Z,0.00
2023-02-14T03:51:57.000Z,0.00
2023-02-14T03:52:56.930Z,0.00
2023-02-14T03:54:49.771Z,0.00
2023-02-14T03:55:49.703Z,0.00
2023-02-14T03:57:42.551Z,0.00
2023-02-14T03:58:42.477Z,0.00
2023-02-14T04:00:35.326Z,0.00
2023-02-14T04:01:35.320Z,0.00
2023-02-14T04:03:28.274Z,0.00
2023-02-14T04:05:41.165Z,0.00
2023-02-14T04:06:40.976Z,0.00
2023-02-14T04:08:33.842Z,0.00
2023-02-14T04:09:33.752Z,0.00
2023-02-14T04:11:26.603Z,0.00
2023-02-14T04:12:37.117Z,0.00
2023-02-14T04:14:19.380Z,0.00
2023-02-14T04:15:19.324Z,0.00
2023-02-14T04:17:12.162Z,0.00
2023-02-14T04:18:12.096Z,0.00
2023-02-14T04:20:04.938Z,0.00
2023-02-14T04:21:04.873Z,0.00
2023-02-14T04:22:57.716Z,0.00
2023-02-14T04:23:57.653Z,0.00
2023-02-14T04:25:50.496Z,0.00
2023-02-14T04:26:50.422Z,0.00
2023-02-14T04:28:43.280Z,0.00
2023-02-14T04:29:43.222Z,0.00
2023-02-14T04:31:36.161Z,0.00
2023-02-14T04:32:35.994Z,0.00
2023-02-14T04:34:29.426Z,0.00
2023-02-14T04:35:28.969Z,0.00
2023-02-14T04:37:21.821Z,0.00
2023-02-14T04:38:21.741Z,0.00
2023-02-14T04:40:14.643Z,0.00
2023-02-14T04:41:14.527Z,0.00
2023-02-14T04:43:07.375Z,0.00
2023-02-14T04:44:07.303Z,0.00
2023-02-14T04:46:00.750Z,0.00
2023-02-14T04:47:00.272Z,0.00
2023-02-14T04:48:53.121Z,0.00
2023-02-14T04:49:53.054Z,0.00
2023-02-14T04:51:45.910Z,0.00
2023-02-14T04:52:45.831Z,0.00
2023-02-14T04:54:38.685Z,0.00
2023-02-14T04:55:38.619Z,0.00
2023-02-14T04:57:31.467Z,0.00
2023-02-14T04:58:31.393Z,0.00
2023-02-14T05:00:24.294Z,0.00
2023-02-14T05:01:24.174Z,0.00
2023-02-14T05:03:17.022Z,0.00
2023-02-14T05:04:16.972Z,0.00
2023-02-14T05:06:09.798Z,0.00
2023-02-14T05:07:09.728Z,0.00
2023-02-14T05:09:02.566Z,0.00
2023-02-14T05:10:02.502Z,0.00
2023-02-14T05:11:55.362Z,0.00
2023-02-14T05:12:55.284Z,0.00
2023-02-14T05:14:48.141Z,0.00
2023-02-14T05:15:48.059Z,0.00
2023-02-14T05:17:40.936Z,0.00
2023-02-14T05:18:40.856Z,0.00
2023-02-14T05:20:33.689Z,0.00
2023-02-14T05:21:33.620Z,0.00
2023-02-14T05:23:26.514Z,0.00
2023-02-14T05:24:26.421Z,0.00
2023-02-14T05:26:19.258Z,0.00
2023-02-14T05:27:19.196Z,0.00
2023-02-14T05:29:12.030Z,0.00
2023-02-14T05:30:12.070Z,0.00
2023-02-14T05:32:05.030Z,0.00
2023-02-14T05:33:04.855Z,0.00
2023-02-14T05:34:59.196Z,0.00
2023-02-14T05:35:57.766Z,0.00
2023-02-14T05:37:50.482Z,0.00
2023-02-14T05:38:50.412Z,0.00
2023-02-14T05:40:43.267Z,0.00
2023-02-14T05:41:43.224Z,0.00
2023-02-14T05:43:36.112Z,0.00
2023-02-14T05:44:35.979Z,0.00
2023-02-14T05:46:29.418Z,0.00
2023-02-14T05:47:28.956Z,0.00
2023-02-14T05:49:21.833Z,0.00
2023-02-14T05:50:21.727Z,0.00
2023-02-14T05:52:14.717Z,0.00
2023-02-14T05:53:14.521Z,0.00
2023-02-14T05:55:07.356Z,0.00
2023-02-14T05:56:07.306Z,0.00
2023-02-14T05:58:00.152Z,0.00
2023-02-14T05:59:00.071Z,0.00
2023-02-14T06:00:52.917Z,0.00
2023-02-14T06:01:52.883Z,0.00
2023-02-14T06:03:45.726Z,0.00
2023-02-14T06:04:45.686Z,0.00
2023-02-14T06:06:38.513Z,0.00
2023-02-14T06:07:38.434Z,0.00
2023-02-14T06:09:31.280Z,0.00
2023-02-14T06:10:31.217Z,0.00
2023-02-14T06:12:24.061Z,0.00
2023-02-14T06:13:23.996Z,0.00
2023-02-14T06:15:16.850Z,0.00
2023-02-14T06:16:16.818Z,0.00
2023-02-14T06:18:09.641Z,0.00
2023-02-14T06:19:09.553Z,0.00
2023-02-14T06:21:02.726Z,0.00
2023-02-14T06:22:02.333Z,0.00
2023-02-14T06:23:55.203Z,0.00
2023-02-14T06:24:55.122Z,0.00
2023-02-14T06:26:48.547Z,0.00
2023-02-14T06:27:49.397Z,0.00
2023-02-14T06:30:16.019Z,0.00
2023-02-14T06:31:16.062Z,0.00
2023-02-14T06:33:08.726Z,0.00
2023-02-14T06:34:08.654Z,0.00
2023-02-14T06:36:01.515Z,0.00
2023-02-14T06:37:01.428Z,0.00
2023-02-14T06:38:54.284Z,0.00
2023-02-14T06:39:54.218Z,0.00
2023-02-14T06:41:47.072Z,0.00
2023-02-14T06:42:47.011Z,0.00
2023-02-14T06:44:39.843Z,0.00
2023-02-14T06:45:39.768Z,0.00
2023-02-14T06:47:34.890Z,0.00
2023-02-14T06:48:32.550Z,0.00
2023-02-14T06:50:25.403Z,0.00
2023-02-14T06:51:25.332Z,0.00
2023-02-14T06:53:18.185Z,0.00
2023-02-14T06:54:18.112Z,0.00
2023-02-14T06:56:10.965Z,0.00
2023-02-14T06:57:10.886Z,0.00
2023-02-14T06:59:03.734Z,0.00
2023-02-14T07:00:03.661Z,0.00
2023-02-14T07:01:56.532Z,0.00
2023-02-14T07:02:56.535Z,0.00
2023-02-14T07:04:56.834Z,0.00
2023-02-14T07:07:05.124Z,0.00
2023-02-14T07:08:05.050Z,0.00
2023-02-14T07:09:57.904Z,0.00
2023-02-14T07:10:58.357Z,0.00
2023-02-14T07:12:50.698Z,0.00
2023-02-14T07:13:50.605Z,0.00
2023-02-14T07:15:44.006Z,0.00
2023-02-14T07:16:43.386Z,0.00
2023-02-14T07:18:36.836Z,0.00
2023-02-14T07:19:36.366Z,0.00
2023-02-14T07:21:29.210Z,0.00
2023-02-14T07:22:30.444Z,0.00
2023-02-14T07:24:21.987Z,0.00
2023-02-14T07:25:21.918Z,0.00
2023-02-14T07:27:14.769Z,0.00
2023-02-14T07:28:14.699Z,0.00
2023-02-14T07:30:07.601Z,0.00
2023-02-14T07:31:07.640Z,0.00
2023-02-14T07:33:00.324Z,0.00
2023-02-14T07:34:00.270Z,0.00
2023-02-14T07:35:53.099Z,0.00
2023-02-14T07:36:53.035Z,0.00
2023-02-14T07:38:50.936Z,0.00
2023-02-14T07:39:45.811Z,0.00
2023-02-14T07:41:38.678Z,0.00
2023-02-14T07:42:38.587Z,0.00
2023-02-14T07:44:31.435Z,0.00
2023-02-14T07:45:31.368Z,0.00
2023-02-14T07:47:24.223Z,0.00
2023-02-14T07:48:24.151Z,0.00
2023-02-14T07:50:17.002Z,0.00
2023-02-14T07:51:16.921Z,0.00
2023-02-14T07:53:09.795Z,0.00
2023-02-14T07:54:09.724Z,0.00
2023-02-14T07:56:02.552Z,0.00
2023-02-14T07:57:02.493Z,0.00
2023-02-14T07:58:55.335Z,0.00
2023-02-14T07:59:55.263Z,0.00
2023-02-14T08:01:48.141Z,0.00
2023-02-14T08:02:48.035Z,0.00
2023-02-14T08:04:40.968Z,0.00
2023-02-14T08:05:40.837Z,0.00
2023-02-14T08:07:33.671Z,0.00
2023-02-14T08:08:33.702Z,0.00
2023-02-14T08:10:26.438Z,0.00
2023-02-14T08:11:26.374Z,0.00
2023-02-14T08:13:19.227Z,0.00
2023-02-14T08:14:19.152Z,0.00
2023-02-14T08:16:12.092Z,0.00
2023-02-14T08:17:11.931Z,0.00
2023-02-14T08:19:04.778Z,0.00
2023-02-14T08:20:04.713Z,0.00
2023-02-14T08:21:58.160Z,0.00
2023-02-14T08:22:57.683Z,0.00
2023-02-14T08:24:53.345Z,0.00
2023-02-14T08:25:53.300Z,0.00
2023-02-14T08:27:46.134Z,0.00
2023-02-14T08:28:46.050Z,0.00
2023-02-14T08:30:38.909Z,0.00
2023-02-14T08:31:38.862Z,0.00
2023-02-14T08:33:31.695Z,0.00
2023-02-14T08:34:31.637Z,0.00
2023-02-14T08:36:24.473Z,0.00
2023-02-14T08:37:24.414Z,0.00
2023-02-14T08:39:17.248Z,0.00
2023-02-14T08:40:17.178Z,0.00
2023-02-14T08:42:10.068Z,0.00
2023-02-14T08:43:09.962Z,0.00
2023-02-14T08:45:02.809Z,0.00
2023-02-14T08:46:03.215Z,0.00
2023-02-14T08:47:55.604Z,0.00
2023-02-14T08:48:55.542Z,0.00
2023-02-14T08:50:48.375Z,0.00
2023-02-14T08:51:48.327Z,0.00
2023-02-14T08:53:41.173Z,0.00
2023-02-14T08:54:41.095Z,0.00
2023-02-14T08:56:33.937Z,0.00
2023-02-14T08:57:33.861Z,0.00
2023-02-14T08:59:26.730Z,0.00
2023-02-14T09:00:26.787Z,0.00
2023-02-14T09:02:19.492Z,0.00
2023-02-14T09:03:19.421Z,0.00
2023-02-14T09:05:12.267Z,0.00
2023-02-14T09:06:12.202Z,0.00
2023-02-14T09:08:05.061Z,0.00
2023-02-14T09:09:05.002Z,0.00
2023-02-14T09:10:58.489Z,0.00
2023-02-14T09:11:57.762Z,0.00
2023-02-14T09:13:50.633Z,0.00
2023-02-14T09:14:50.544Z,0.00
2023-02-14T09:16:43.561Z,0.00
2023-02-14T09:17:43.346Z,0.00
2023-02-14T09:19:36.176Z,0.00
2023-02-14T09:20:36.109Z,0.00
2023-02-14T09:22:28.944Z,0.00
2023-02-14T09:23:28.878Z,0.00
2023-02-14T09:25:21.797Z,0.00
2023-02-14T09:26:21.656Z,0.00
2023-02-14T09:28:14.508Z,0.00
2023-02-14T09:29:14.437Z,0.00
2023-02-14T09:31:07.407Z,0.00
2023-02-14T09:32:07.406Z,0.00
2023-02-14T09:34:00.104Z,0.00
2023-02-14T09:35:00.000Z,0.00
2023-02-14T09:36:52.849Z,0.00
2023-02-14T09:37:52.780Z,0.00
2023-02-14T09:39:45.626Z,0.00
2023-02-14T09:40:45.568Z,0.00
2023-02-14T09:42:38.404Z,0.00
2023-02-14T09:43:38.337Z,0.00
2023-02-14T09:45:31.220Z,0.00
2023-02-14T09:46:31.111Z,0.00
2023-02-14T09:48:23.967Z,0.00
2023-02-14T09:49:24.014Z,0.00
2023-02-14T09:51:16.755Z,0.00
2023-02-14T09:52:16.755Z,0.00
2023-02-14T09:54:09.524Z,0.00
2023-02-14T09:55:09.454Z,5.63
2023-02-14T09:57:02.331Z,5.63
2023-02-14T09:58:02.233Z,5.63
2023-02-14T09:59:55.098Z,5.63
2023-02-14T10:00:55.113Z,5.63
2023-02-14T10:02:47.861Z,5.63
2023-02-14T10:03:47.790Z,5.63
2023-02-14T10:05:40.631Z,5.63
2023-02-14T10:06:40.570Z,5.63
2023-02-14T10:08:33.431Z,5.63
2023-02-14T10:09:33.359Z,5.63
2023-02-14T10:11:26.214Z,5.63
2023-02-14T10:12:26.151Z,5.63
2023-02-14T10:14:18.987Z,5.63
2023-02-14T10:15:18.923Z,5.63
2023-02-14T10:17:11.770Z,5.63
2023-02-14T10:18:11.696Z,5.63
2023-02-14T10:20:04.538Z,5.63
2023-02-14T10:21:04.474Z,5.63
2023-02-14T10:22:57.323Z,5.63
2023-02-14T10:23:57.245Z,5.63
2023-02-14T10:25:50.100Z,11.25
2023-02-14T10:26:50.039Z,11.25
2023-02-14T10:28:43.481Z,11.25
2023-02-14T10:29:43.196Z,16.88
2023-02-14T10:31:35.972Z,22.50
2023-02-14T10:32:35.781Z,28.13
2023-02-14T10:34:28.636Z,135.00
2023-02-14T10:35:28.574Z,225.00
2023-02-14T10:37:21.427Z,213.75
2023-02-14T10:38:21.344Z,112.50
2023-02-14T10:40:17.649Z,39.38
2023-02-14T10:41:17.119Z,39.38
2023-02-14T10:43:09.969Z,39.38
2023-02-14T10:44:09.896Z,90.00
2023-02-14T10:46:02.777Z,253.13
2023-02-14T10:47:02.756Z,270.00
2023-02-14T10:49:30.555Z,264.38
2023-02-14T10:49:55.448Z,270.00
2023-02-14T10:51:48.303Z,258.75
2023-02-14T10:52:48.233Z,202.50
2023-02-14T10:54:41.078Z,73.13
2023-02-14T10:55:41.015Z,33.75
2023-02-14T10:57:33.869Z,11.25
2023-02-14T10:58:33.863Z,11.25
2023-02-14T11:00:26.652Z,5.63
2023-02-14T11:01:26.609Z,5.63
2023-02-14T11:03:19.443Z,5.63
2023-02-14T11:04:20.964Z,5.63
2023-02-14T11:06:12.216Z,5.63
2023-02-14T11:07:12.149Z,5.63
2023-02-14T11:09:04.995Z,5.63
2023-02-14T11:10:04.921Z,5.63
2023-02-14T11:11:57.773Z,5.63
2023-02-14T11:12:57.697Z,5.63
2023-02-14T11:14:50.548Z,5.63
2023-02-14T11:15:50.487Z,5.63
2023-02-14T11:17:43.331Z,5.63
2023-02-14T11:18:43.253Z,5.63
2023-02-14T11:20:36.119Z,5.63
2023-02-14T11:21:36.048Z,5.63
2023-02-14T11:23:28.909Z,5.63
2023-02-14T11:24:28.836Z,11.25
2023-02-14T11:26:21.698Z,11.25
2023-02-14T11:27:21.620Z,11.25
2023-02-14T11:29:14.472Z,5.63
2023-02-14T11:30:14.495Z,5.63
2023-02-14T11:32:07.261Z,5.63
2023-02-14T11:33:07.197Z,5.63
2023-02-14T11:35:00.044Z,5.63
2023-02-14T11:35:59.967Z,5.63
2023-02-14T11:37:52.818Z,5.63
2023-02-14T11:38:52.745Z,5.63
2023-02-14T11:40:45.591Z,5.63
2023-02-14T11:41:45.527Z,5.63
2023-02-14T11:43:38.372Z,5.63
2023-02-14T11:44:38.304Z,5.63
2023-02-14T11:46:32.540Z,5.63
2023-02-14T11:47:31.090Z,5.63
2023-02-14T11:49:23.935Z,5.63
2023-02-14T11:50:23.860Z,5.63
2023-02-14T11:52:16.716Z,5.63
2023-02-14T11:53:16.642Z,5.63
2023-02-14T11:55:09.493Z,5.63
2023-02-14T11:56:09.425Z,5.63
2023-02-14T11:58:02.283Z,5.63
2023-02-14T11:59:02.206Z,5.63
2023-02-14T12:00:55.059Z,5.63
2023-02-14T12:01:54.991Z,5.63
2023-02-14T12:03:47.929Z,5.63
2023-02-14T12:04:47.778Z,5.63
2023-02-14T12:06:40.634Z,5.63
2023-02-14T12:07:40.575Z,5.63
2023-02-14T12:09:33.407Z,5.63
2023-02-14T12:10:33.338Z,5.63
2023-02-14T12:12:26.208Z,5.63
2023-02-14T12:13:26.136Z,5.63
2023-02-14T12:15:18.983Z,5.63
2023-02-14T12:16:18.909Z,5.63
2023-02-14T12:18:11.767Z,5.63
2023-02-14T12:19:11.694Z,5.63
2023-02-14T12:21:04.544Z,5.63
2023-02-14T12:22:04.479Z,0.00
2023-02-14T12:23:57.320Z,0.00
2023-02-14T12:24:57.258Z,0.00
2023-02-14T12:26:50.104Z,0.00
2023-02-14T12:27:50.030Z,0.00
2023-02-14T12:29:42.909Z,0.00
2023-02-14T12:30:42.808Z,0.00
2023-02-14T12:32:35.671Z,0.00
2023-02-14T12:33:35.606Z,0.00
2023-02-14T12:35:28.440Z,0.00
2023-02-14T12:36:28.368Z,0.00
2023-02-14T12:38:21.220Z,0.00
2023-02-14T12:39:21.147Z,0.00
2023-02-14T12:41:13.999Z,0.00
2023-02-14T12:42:13.924Z,0.00
2023-02-14T12:44:06.778Z,0.00
2023-02-14T12:45:06.702Z,0.00
2023-02-14T12:46:59.556Z,0.00
2023-02-14T12:47:59.488Z,0.00
2023-02-14T12:49:52.336Z,0.00
2023-02-14T12:50:52.271Z,0.00
2023-02-14T12:52:45.116Z,0.00
2023-02-14T12:53:45.402Z,0.00
2023-02-14T12:55:37.898Z,0.00
2023-02-14T12:56:37.832Z,0.00
2023-02-14T12:58:30.676Z,0.00
2023-02-14T12:59:30.606Z,0.00
2023-02-14T13:01:29.099Z,0.00
2023-02-14T13:02:23.449Z,0.00
2023-02-14T13:04:16.246Z,0.00
2023-02-14T13:05:16.182Z,0.00
2023-02-14T13:07:09.031Z,0.00
2023-02-14T13:08:08.956Z,0.00
2023-02-14T13:10:01.809Z,0.00
2023-02-14T13:11:02.127Z,0.00
2023-02-14T13:12:54.589Z,0.00
2023-02-14T13:13:54.517Z,0.00
2023-02-14T13:15:47.393Z,0.00
2023-02-14T13:16:47.301Z,0.00
2023-02-14T13:18:40.239Z,0.00
2023-02-14T13:19:40.089Z,0.00
2023-02-14T13:21:33.276Z,0.00
2023-02-14T13:22:32.928Z,0.00
2023-02-14T13:24:25.714Z,0.00
2023-02-14T13:25:25.650Z,0.00
2023-02-14T13:27:18.496Z,0.00
2023-02-14T13:28:18.424Z,0.00
2023-02-14T13:30:11.390Z,0.00
2023-02-14T13:31:11.270Z,0.00
2023-02-14T13:33:04.061Z,0.00
2023-02-14T13:34:03.988Z,0.00
2023-02-14T13:35:56.853Z,0.00
2023-02-14T13:36:56.771Z,0.00
2023-02-14T13:38:49.727Z,0.00
2023-02-14T13:39:49.646Z,0.00
2023-02-14T13:41:42.493Z,0.00
2023-02-14T13:42:42.421Z,0.00
2023-02-14T13:44:35.269Z,0.00
2023-02-14T13:45:35.243Z,0.00
2023-02-14T13:47:28.117Z,0.00
2023-02-14T13:48:28.566Z,0.00
2023-02-14T13:50:20.835Z,0.00
2023-02-14T13:51:20.835Z,0.00
2023-02-14T13:53:13.624Z,0.00
2023-02-14T13:54:13.552Z,5.63
2023-02-14T13:56:06.403Z,5.63
2023-02-14T13:57:06.331Z,5.63
2023-02-14T13:58:59.188Z,5.63
2023-02-14T13:59:59.183Z,5.63
2023-02-14T14:01:51.960Z,5.63
2023-02-14T14:02:51.934Z,5.63
2023-02-14T14:04:44.745Z,5.63
2023-02-14T14:05:44.670Z,5.63
2023-02-14T14:07:37.526Z,5.63
2023-02-14T14:08:37.458Z,5.63
2023-02-14T14:10:30.335Z,5.63
2023-02-14T14:11:30.251Z,5.63
2023-02-14T14:13:23.090Z,0.00
2023-02-14T14:14:23.017Z,0.00
2023-02-14T14:16:15.918Z,0.00
2023-02-14T14:17:15.799Z,0.00
2023-02-14T14:19:08.640Z,0.00
2023-02-14T14:20:08.581Z,0.00
2023-02-14T14:22:01.434Z,0.00
2023-02-14T14:23:01.361Z,0.00
2023-02-14T14:24:54.223Z,0.00
2023-02-14T14:25:54.258Z,0.00
2023-02-14T14:27:47.015Z,0.00
2023-02-14T14:28:46.933Z,0.00
2023-02-14T14:30:39.836Z,0.00
2023-02-14T14:31:39.767Z,0.00
2023-02-14T14:33:32.601Z,0.00
2023-02-14T14:34:32.525Z,0.00
2023-02-14T14:36:25.378Z,0.00
2023-02-14T14:37:25.319Z,0.00
2023-02-14T14:39:18.161Z,0.00
2023-02-14T14:40:18.100Z,0.00
2023-02-14T14:42:10.948Z,0.00
2023-02-14T14:43:10.878Z,0.00
2023-02-14T14:45:03.720Z,0.00
2023-02-14T14:46:04.069Z,0.00
2023-02-14T14:47:56.520Z,0.00
2023-02-14T14:48:56.441Z,0.00
2023-02-14T14:50:49.293Z,0.00
2023-02-14T14:51:49.218Z,0.00
2023-02-14T14:53:42.083Z,0.00
2023-02-14T14:54:42.009Z,0.00
2023-02-14T14:56:34.870Z,0.00
2023-02-14T14:57:34.798Z,0.00
2023-02-14T14:59:27.646Z,0.00
2023-02-14T15:00:27.583Z,0.00
2023-02-14T15:02:20.430Z,0.00
2023-02-14T15:03:20.358Z,0.00
2023-02-14T15:05:13.209Z,0.00
2023-02-14T15:06:13.142Z,0.00
2023-02-14T15:08:05.996Z,0.00
2023-02-14T15:09:05.922Z,0.00
2023-02-14T15:10:59.854Z,0.00
2023-02-14T15:11:58.897Z,0.00
2023-02-14T15:13:51.754Z,0.00
2023-02-14T15:14:51.681Z,0.00
2023-02-14T15:16:44.535Z,0.00
2023-02-14T15:17:44.466Z,0.00
2023-02-14T15:19:37.373Z,0.00
2023-02-14T15:20:37.246Z,0.00
2023-02-14T15:22:30.105Z,0.00
2023-02-14T15:23:30.026Z,0.00
2023-02-14T15:25:22.880Z,0.00
2023-02-14T15:26:22.817Z,0.00
2023-02-14T15:28:15.672Z,0.00
2023-02-14T15:29:15.601Z,0.00
2023-02-14T15:31:08.616Z,0.00
2023-02-14T15:32:08.541Z,0.00
2023-02-14T15:34:01.242Z,0.00
2023-02-14T15:35:01.194Z,0.00
2023-02-14T15:36:54.043Z,0.00
2023-02-14T15:37:53.950Z,0.00
2023-02-14T15:39:46.824Z,0.00
2023-02-14T15:40:46.729Z,0.00
2023-02-14T15:42:39.590Z,0.00
2023-02-14T15:43:39.525Z,0.00
2023-02-14T15:45:32.383Z,0.00
2023-02-14T15:46:32.303Z,0.00
2023-02-14T15:48:25.157Z,0.00
2023-02-14T15:49:25.091Z,0.00
2023-02-14T15:51:17.947Z,0.00
2023-02-14T15:52:17.874Z,0.00
2023-02-14T15:54:10.728Z,0.00
2023-02-14T15:55:11.252Z,0.00
2023-02-14T15:57:03.519Z,0.00
2023-02-14T15:58:03.446Z,0.00
2023-02-14T15:59:56.291Z,0.00
2023-02-14T16:00:56.228Z,0.00
2023-02-14T16:02:49.145Z,0.00
2023-02-14T16:03:49.004Z,0.00
2023-02-14T16:05:41.856Z,0.00
2023-02-14T16:06:41.784Z,0.00
2023-02-14T16:08:34.639Z,0.00
2023-02-14T16:09:34.595Z,0.00
2023-02-14T16:11:27.418Z,0.00
2023-02-14T16:12:27.355Z,0.00
2023-02-14T16:14:20.203Z,0.00
2023-02-14T16:15:20.185Z,0.00
2023-02-14T16:17:12.997Z,0.00
2023-02-14T16:18:12.917Z,0.00
2023-02-14T16:20:05.786Z,0.00
2023-02-14T16:21:05.704Z,0.00
2023-02-14T16:22:58.565Z,0.00
2023-02-14T16:23:58.550Z,0.00
2023-02-14T16:25:51.341Z,0.00
2023-02-14T16:26:51.280Z,0.00
2023-02-14T16:28:44.168Z,0.00
2023-02-14T16:29:44.053Z,0.00
2023-02-14T16:31:37.619Z,0.00
2023-02-14T16:32:37.191Z,0.00
2023-02-14T16:34:29.895Z,0.00
2023-02-14T16:35:29.823Z,0.00
2023-02-14T16:37:22.672Z,0.00
2023-02-14T16:38:22.600Z,0.00
2023-02-14T16:40:15.449Z,0.00
2023-02-14T16:41:15.384Z,0.00
2023-02-14T16:43:08.238Z,0.00
2023-02-14T16:44:08.211Z,0.00
2023-02-14T16:46:01.052Z,0.00
2023-02-14T16:47:00.958Z,0.00
2023-02-14T16:48:53.883Z,0.00
2023-02-14T16:49:53.984Z,0.00
2023-02-14T16:51:46.603Z,0.00
2023-02-14T16:52:46.523Z,0.00
2023-02-14T16:54:49.919Z,0.00
2023-02-14T16:55:39.304Z,0.00
2023-02-14T16:57:32.185Z,0.00
2023-02-14T16:58:32.092Z,0.00
2023-02-14T17:00:24.939Z,0.00
2023-02-14T17:01:24.907Z,0.00
2023-02-14T17:03:17.728Z,0.00
2023-02-14T17:04:17.671Z,0.00
2023-02-14T17:06:10.515Z,0.00
2023-02-14T17:07:10.436Z,0.00
2023-02-14T17:09:03.290Z,0.00
2023-02-14T17:10:03.222Z,0.00
2023-02-14T17:11:56.078Z,0.00
2023-02-14T17:12:56.005Z,0.00
2023-02-14T17:14:48.854Z,0.00
2023-02-14T17:15:48.807Z,0.00
2023-02-14T17:17:41.645Z,0.00
2023-02-14T17:18:41.575Z,0.00
2023-02-14T17:20:34.446Z,0.00
2023-02-14T17:21:34.386Z,0.00
2023-02-14T17:23:27.218Z,0.00
2023-02-14T17:24:27.147Z,0.00
2023-02-14T17:26:20.055Z,0.00
2023-02-14T17:27:19.921Z,0.00
2023-02-14T17:29:12.774Z,0.00
2023-02-14T17:30:12.766Z,0.00
2023-02-14T17:32:05.747Z,0.00
2023-02-14T17:33:05.519Z,0.00
2023-02-14T17:34:58.369Z,0.00
2023-02-14T17:35:58.289Z,0.00
2023-02-14T17:37:51.130Z,0.00
2023-02-14T17:38:51.060Z,0.00
2023-02-14T17:40:43.910Z,0.00
2023-02-14T17:41:43.842Z,0.00
2023-02-14T17:43:36.698Z,0.00
2023-02-14T17:44:36.623Z,0.00
2023-02-14T17:46:29.502Z,0.00
2023-02-14T17:47:29.411Z,0.00
2023-02-14T17:49:22.257Z,0.00
2023-02-14T17:50:22.294Z,0.00
2023-02-14T17:52:15.051Z,0.00
2023-02-14T17:53:14.970Z,0.00
2023-02-14T17:55:07.950Z,0.00
2023-02-14T17:56:07.887Z,0.00
2023-02-14T17:58:00.739Z,0.00
2023-02-14T17:59:00.669Z,0.00
2023-02-14T18:00:53.518Z,0.00
2023-02-14T18:01:53.530Z,0.00
2023-02-14T18:03:46.301Z,0.00
2023-02-14T18:04:46.236Z,0.00
2023-02-14T18:06:39.079Z,0.00
2023-02-14T18:07:39.018Z,0.00
2023-02-14T18:09:32.449Z,0.00
2023-02-14T18:10:31.983Z,0.00
2023-02-14T18:12:24.832Z,0.00
2023-02-14T18:13:24.757Z,0.00
2023-02-14T18:15:17.611Z,0.00
2023-02-14T18:16:17.640Z,0.00
2023-02-14T18:18:11.643Z,0.00
2023-02-14T18:19:10.324Z,0.00
2023-02-14T18:21:03.868Z,0.00
2023-02-14T18:22:03.305Z,0.00
2023-02-14T18:23:56.159Z,0.00
2023-02-14T18:24:56.089Z,0.00
2023-02-14T18:26:48.928Z,0.00
2023-02-14T18:27:48.855Z,0.00
2023-02-14T18:29:41.704Z,0.00
2023-02-14T18:30:41.649Z,0.00
2023-02-14T18:32:34.485Z,0.00
2023-02-14T18:33:34.414Z,0.00
2023-02-14T18:35:27.259Z,0.00
2023-02-14T18:36:27.195Z,0.00
2023-02-14T18:38:20.050Z,0.00
2023-02-14T18:39:19.995Z,0.00
2023-02-14T18:41:12.828Z,0.00
2023-02-14T18:42:12.750Z,0.00
2023-02-14T18:44:05.623Z,0.00
2023-02-14T18:45:05.535Z,0.00
2023-02-14T18:46:58.380Z,0.00
2023-02-14T18:47:58.308Z,0.00
2023-02-14T18:49:51.162Z,0.00
2023-02-14T18:50:52.762Z,0.00
2023-02-14T18:52:44.476Z,0.00
2023-02-14T18:53:43.872Z,0.00
2023-02-14T18:55:36.724Z,0.00
2023-02-14T18:56:36.651Z,0.00
2023-02-14T18:58:29.499Z,0.00
2023-02-14T18:59:29.424Z,0.00
2023-02-14T19:01:22.327Z,0.00
2023-02-14T19:02:22.274Z,0.00
2023-02-14T19:04:15.162Z,0.00
2023-02-14T19:05:14.989Z,0.00
2023-02-14T19:07:07.849Z,0.00
2023-02-14T19:08:07.784Z,0.00
2023-02-14T19:10:00.653Z,0.00
2023-02-14T19:11:00.883Z,0.00